sensor_id;sensor_type;location;lat;lon;timestamp;pressure;altitude;pressure_sealevel;temperature;humidity
39177;BME280;24904;52.208;21.192;2023-03-13T00:01:13;100040.15;;;2.44;62.05
39177;BME280;24904;52.208;21.192;2023-03-13T00:06:16;100032.92;;;2.47;62.12
39177;BME280;24904;52.208;21.192;2023-03-13T00:11:19;100027.92;;;2.48;61.68
39177;BME280;24904;52.208;21.192;2023-03-13T00:16:23;100025.22;;;2.48;61.86
39177;BME280;24904;52.208;21.192;2023-03-13T00:21:28;100020.83;;;2.51;62.04
39177;BME280;24904;52.208;21.192;2023-03-13T00:26:31;100022.11;;;2.52;62.14
39177;BME280;24904;52.208;21.192;2023-03-13T00:31:34;100015.74;;;2.55;62.37
39177;BME280;24904;52.208;21.192;2023-03-13T00:36:37;100011.56;;;2.60;62.22
39177;BME280;24904;52.208;21.192;2023-03-13T00:41:40;100009.73;;;2.63;62.51
39177;BME280;24904;52.208;21.192;2023-03-13T00:46:43;100018.69;;;2.64;62.25
39177;BME280;24904;52.208;21.192;2023-03-13T00:51:46;100021.13;;;2.67;62.58
39177;BME280;24904;52.208;21.192;2023-03-13T00:56:49;100021.02;;;2.70;62.37
39177;BME280;24904;52.208;21.192;2023-03-13T01:01:52;100015.74;;;2.74;62.37
39177;BME280;24904;52.208;21.192;2023-03-13T01:06:56;100016.77;;;2.77;62.47
39177;BME280;24904;52.208;21.192;2023-03-13T01:11:59;100012.35;;;2.79;62.49
39177;BME280;24904;52.208;21.192;2023-03-13T01:17:02;99999.48;;;2.79;62.89
39177;BME280;24904;52.208;21.192;2023-03-13T01:22:05;99989.93;;;2.78;62.51
39177;BME280;24904;52.208;21.192;2023-03-13T01:27:12;99980.13;;;2.77;62.66
39177;BME280;24904;52.208;21.192;2023-03-13T01:32:17;99969.95;;;2.74;62.58
39177;BME280;24904;52.208;21.192;2023-03-13T01:37:20;99969.54;;;2.73;62.36
39177;BME280;24904;52.208;21.192;2023-03-13T01:42:23;99966.66;;;2.75;62.66
39177;BME280;24904;52.208;21.192;2023-03-13T01:47:28;99963.94;;;2.78;62.74
39177;BME280;24904;52.208;21.192;2023-03-13T01:52:45;99949.87;;;2.78;62.80
39177;BME280;24904;52.208;21.192;2023-03-13T01:57:57;99940.06;;;2.81;62.42
39177;BME280;24904;52.208;21.192;2023-03-13T02:03:04;99933.15;;;2.84;62.58
39177;BME280;24904;52.208;21.192;2023-03-13T02:08:12;99933.70;;;2.89;62.45
39177;BME280;24904;52.208;21.192;2023-03-13T02:13:17;99929.42;;;2.94;62.47
39177;BME280;24904;52.208;21.192;2023-03-13T02:18:21;99934.77;;;2.96;62.26
39177;BME280;24904;52.208;21.192;2023-03-13T02:23:30;99934.95;;;2.98;62.10
39177;BME280;24904;52.208;21.192;2023-03-13T02:28:37;99930.38;;;3.04;62.28
39177;BME280;24904;52.208;21.192;2023-03-13T02:33:44;99925.82;;;3.09;62.18
39177;BME280;24904;52.208;21.192;2023-03-13T02:38:54;99928.87;;;3.16;62.33
39177;BME280;24904;52.208;21.192;2023-03-13T02:43:59;99917.93;;;3.23;62.61
39177;BME280;24904;52.208;21.192;2023-03-13T02:49:18;99920.55;;;3.27;62.30
39177;BME280;24904;52.208;21.192;2023-03-13T02:54:23;99917.46;;;3.33;62.83
39177;BME280;24904;52.208;21.192;2023-03-13T02:59:28;99922.48;;;3.37;62.97
39177;BME280;24904;52.208;21.192;2023-03-13T03:04:32;99919.02;;;3.40;62.96
39177;BME280;24904;52.208;21.192;2023-03-13T03:09:35;99921.35;;;3.42;62.75
39177;BME280;24904;52.208;21.192;2023-03-13T03:14:42;99919.49;;;3.45;62.81
39177;BME280;24904;52.208;21.192;2023-03-13T03:19:45;99918.10;;;3.50;63.13
39177;BME280;24904;52.208;21.192;2023-03-13T03:24:48;99914.84;;;3.52;63.00
39177;BME280;24904;52.208;21.192;2023-03-13T03:29:51;99909.64;;;3.54;62.89
39177;BME280;24904;52.208;21.192;2023-03-13T03:34:56;99913.90;;;3.54;63.07
39177;BME280;24904;52.208;21.192;2023-03-13T03:40:00;99910.73;;;3.54;63.44
39177;BME280;24904;52.208;21.192;2023-03-13T03:45:07;99912.63;;;3.55;63.38
39177;BME280;24904;52.208;21.192;2023-03-13T03:50:11;99912.77;;;3.57;63.57
39177;BME280;24904;52.208;21.192;2023-03-13T03:55:21;99914.95;;;3.58;63.77
39177;BME280;24904;52.208;21.192;2023-03-13T04:00:25;99910.08;;;3.58;63.93
39177;BME280;24904;52.208;21.192;2023-03-13T04:05:29;99904.83;;;3.62;63.83
39177;BME280;24904;52.208;21.192;2023-03-13T04:10:32;99887.75;;;3.66;63.83
39177;BME280;24904;52.208;21.192;2023-03-13T04:15:37;99875.59;;;3.65;63.58
39177;BME280;24904;52.208;21.192;2023-03-13T04:20:41;99869.69;;;3.64;63.68
39177;BME280;24904;52.208;21.192;2023-03-13T04:25:45;99865.46;;;3.68;63.77
39177;BME280;24904;52.208;21.192;2023-03-13T04:30:48;99866.70;;;3.73;63.55
39177;BME280;24904;52.208;21.192;2023-03-13T04:36:10;99863.55;;;3.77;63.77
39177;BME280;24904;52.208;21.192;2023-03-13T04:41:32;99850.69;;;3.77;63.87
39177;BME280;24904;52.208;21.192;2023-03-13T04:47:00;99841.16;;;3.78;64.21
39177;BME280;24904;52.208;21.192;2023-03-13T04:52:12;99835.95;;;3.77;64.27
39177;BME280;24904;52.208;21.192;2023-03-13T04:57:48;99839.91;;;3.78;64.73
39177;BME280;24904;52.208;21.192;2023-03-13T05:03:17;99841.29;;;3.74;64.96
39177;BME280;24904;52.208;21.192;2023-03-13T05:08:43;99831.57;;;3.70;65.64
39177;BME280;24904;52.208;21.192;2023-03-13T05:14:19;99826.34;;;3.66;66.22
39177;BME280;24904;52.208;21.192;2023-03-13T05:19:42;99824.79;;;3.67;66.58
39177;BME280;24904;52.208;21.192;2023-03-13T05:25:09;99821.36;;;3.74;67.21
39177;BME280;24904;52.208;21.192;2023-03-13T05:30:30;99820.85;;;3.75;66.91
39177;BME280;24904;52.208;21.192;2023-03-13T05:35:48;99817.52;;;3.76;67.05
39177;BME280;24904;52.208;21.192;2023-03-13T05:41:48;99814.37;;;3.74;67.25
39177;BME280;24904;52.208;21.192;2023-03-13T05:47:17;99814.66;;;3.71;68.18
39177;BME280;24904;52.208;21.192;2023-03-13T05:52:42;99821.20;;;3.79;68.18
39177;BME280;24904;52.208;21.192;2023-03-13T05:57:56;99829.10;;;3.84;68.95
39177;BME280;24904;52.208;21.192;2023-03-13T06:03:18;99834.03;;;3.88;69.27
39177;BME280;24904;52.208;21.192;2023-03-13T06:08:22;99829.16;;;3.94;69.21
39177;BME280;24904;52.208;21.192;2023-03-13T06:13:25;99815.18;;;3.99;69.53
39177;BME280;24904;52.208;21.192;2023-03-13T06:18:30;99814.31;;;4.04;69.76
39177;BME280;24904;52.208;21.192;2023-03-13T06:23:33;99820.39;;;4.08;69.90
39177;BME280;24904;52.208;21.192;2023-03-13T06:28:36;99821.96;;;4.11;70.04
39177;BME280;24904;52.208;21.192;2023-03-13T06:33:39;99810.00;;;4.14;70.49
39177;BME280;24904;52.208;21.192;2023-03-13T06:38:43;99809.79;;;4.15;71.13
39177;BME280;24904;52.208;21.192;2023-03-13T06:43:46;99820.40;;;4.13;71.35
39177;BME280;24904;52.208;21.192;2023-03-13T06:48:49;99809.09;;;4.15;71.63
39177;BME280;24904;52.208;21.192;2023-03-13T06:53:52;99810.85;;;4.20;71.69
39177;BME280;24904;52.208;21.192;2023-03-13T06:58:55;99804.98;;;4.26;72.49
39177;BME280;24904;52.208;21.192;2023-03-13T07:03:58;99802.41;;;4.29;72.34
39177;BME280;24904;52.208;21.192;2023-03-13T07:09:01;99800.20;;;4.33;72.68
39177;BME280;24904;52.208;21.192;2023-03-13T07:14:06;99795.05;;;4.38;72.74
39177;BME280;24904;52.208;21.192;2023-03-13T07:19:09;99793.38;;;4.45;72.73
39177;BME280;24904;52.208;21.192;2023-03-13T07:24:12;99790.05;;;4.52;72.53
39177;BME280;24904;52.208;21.192;2023-03-13T07:29:15;99791.37;;;4.58;73.11
39177;BME280;24904;52.208;21.192;2023-03-13T07:34:18;99793.20;;;4.63;72.94
39177;BME280;24904;52.208;21.192;2023-03-13T07:39:22;99791.34;;;4.65;72.99
39177;BME280;24904;52.208;21.192;2023-03-13T07:44:25;99776.39;;;4.70;73.07
39177;BME280;24904;52.208;21.192;2023-03-13T07:49:28;99774.18;;;4.79;73.02
39177;BME280;24904;52.208;21.192;2023-03-13T07:54:31;99771.20;;;4.88;73.18
39177;BME280;24904;52.208;21.192;2023-03-13T07:59:34;99765.73;;;4.96;72.98
39177;BME280;24904;52.208;21.192;2023-03-13T08:04:37;99764.23;;;5.01;72.93
39177;BME280;24904;52.208;21.192;2023-03-13T08:09:41;99758.03;;;5.16;73.06
39177;BME280;24904;52.208;21.192;2023-03-13T08:14:44;99753.91;;;5.30;73.20
39177;BME280;24904;52.208;21.192;2023-03-13T08:19:47;99748.55;;;5.44;73.16
39177;BME280;24904;52.208;21.192;2023-03-13T08:24:51;99746.13;;;5.55;72.82
39177;BME280;24904;52.208;21.192;2023-03-13T08:29:54;99747.63;;;5.63;72.68
39177;BME280;24904;52.208;21.192;2023-03-13T08:34:57;99751.54;;;5.75;72.76
39177;BME280;24904;52.208;21.192;2023-03-13T08:40:00;99751.09;;;5.84;72.55
39177;BME280;24904;52.208;21.192;2023-03-13T08:45:07;99744.27;;;5.92;72.65
39177;BME280;24904;52.208;21.192;2023-03-13T08:50:12;99738.13;;;6.01;72.61
39177;BME280;24904;52.208;21.192;2023-03-13T08:55:16;99726.87;;;6.06;72.47
39177;BME280;24904;52.208;21.192;2023-03-13T09:06:49;99700.11;;;6.34;72.38
39177;BME280;24904;52.208;21.192;2023-03-13T09:17:39;99680.90;;;6.69;72.50
39177;BME280;24904;52.208;21.192;2023-03-13T09:22:45;99668.20;;;6.91;72.56
39177;BME280;24904;52.208;21.192;2023-03-13T09:27:50;99649.50;;;7.15;72.47
39177;BME280;24904;52.208;21.192;2023-03-13T09:32:54;99645.35;;;7.39;72.46
39177;BME280;24904;52.208;21.192;2023-03-13T09:37:59;99636.01;;;7.61;72.04
39177;BME280;24904;52.208;21.192;2023-03-13T09:52:11;99615.98;;;8.13;71.81
39177;BME280;24904;52.208;21.192;2023-03-13T09:57:26;99611.27;;;8.35;71.81
39177;BME280;24904;52.208;21.192;2023-03-13T10:02:43;99604.55;;;8.55;71.85
39177;BME280;24904;52.208;21.192;2023-03-13T10:08:11;99593.27;;;8.77;71.49
39177;BME280;24904;52.208;21.192;2023-03-13T10:13:21;99584.77;;;8.93;71.01
39177;BME280;24904;52.208;21.192;2023-03-13T10:18:28;99578.66;;;9.11;71.13
39177;BME280;24904;52.208;21.192;2023-03-13T10:23:39;99574.95;;;9.28;70.71
39177;BME280;24904;52.208;21.192;2023-03-13T10:28:50;99572.73;;;9.42;70.48
39177;BME280;24904;52.208;21.192;2023-03-13T10:34:06;99569.31;;;9.53;70.26
39177;BME280;24904;52.208;21.192;2023-03-13T10:39:16;99569.42;;;9.64;70.18
39177;BME280;24904;52.208;21.192;2023-03-13T10:44:28;99567.64;;;9.74;69.79
39177;BME280;24904;52.208;21.192;2023-03-13T10:49:34;99559.02;;;9.79;69.94
39177;BME280;24904;52.208;21.192;2023-03-13T10:54:50;99547.36;;;9.86;69.80
39177;BME280;24904;52.208;21.192;2023-03-13T11:00:22;99538.05;;;9.92;69.87
39177;BME280;24904;52.208;21.192;2023-03-13T11:05:38;99526.05;;;9.96;69.45
39177;BME280;24904;52.208;21.192;2023-03-13T11:10:57;99515.87;;;10.01;69.65
39177;BME280;24904;52.208;21.192;2023-03-13T11:16:09;99508.50;;;10.08;69.74
39177;BME280;24904;52.208;21.192;2023-03-13T11:21:22;99498.77;;;10.16;69.63
39177;BME280;24904;52.208;21.192;2023-03-13T11:26:36;99487.41;;;10.24;69.28
39177;BME280;24904;52.208;21.192;2023-03-13T11:31:43;99477.39;;;10.29;69.00
39177;BME280;24904;52.208;21.192;2023-03-13T11:36:54;99471.41;;;10.33;68.74
39177;BME280;24904;52.208;21.192;2023-03-13T11:42:03;99455.86;;;10.39;68.47
39177;BME280;24904;52.208;21.192;2023-03-13T11:53:02;99422.46;;;10.62;68.04
39177;BME280;24904;52.208;21.192;2023-03-13T11:58:25;99411.41;;;10.77;67.62
39177;BME280;24904;52.208;21.192;2023-03-13T12:03:39;99404.44;;;10.90;67.35
39177;BME280;24904;52.208;21.192;2023-03-13T12:08:49;99403.76;;;10.99;66.83
39177;BME280;24904;52.208;21.192;2023-03-13T12:14:00;99394.16;;;11.03;66.78
39177;BME280;24904;52.208;21.192;2023-03-13T12:19:07;99393.98;;;11.05;66.16
39177;BME280;24904;52.208;21.192;2023-03-13T12:24:18;99391.63;;;11.05;65.93
39177;BME280;24904;52.208;21.192;2023-03-13T12:29:37;99386.25;;;11.09;65.88
39177;BME280;24904;52.208;21.192;2023-03-13T12:34:52;99377.13;;;11.15;65.90
39177;BME280;24904;52.208;21.192;2023-03-13T12:40:03;99369.00;;;11.19;65.89
39177;BME280;24904;52.208;21.192;2023-03-13T12:45:16;99367.02;;;11.20;65.83
39177;BME280;24904;52.208;21.192;2023-03-13T12:50:30;99359.33;;;11.21;66.30
39177;BME280;24904;52.208;21.192;2023-03-13T13:01:26;99345.33;;;11.16;66.65
39177;BME280;24904;52.208;21.192;2023-03-13T13:06:59;99341.66;;;11.14;66.98
39177;BME280;24904;52.208;21.192;2023-03-13T13:12:19;99333.11;;;11.10;67.21
39177;BME280;24904;52.208;21.192;2023-03-13T13:17:25;99324.19;;;11.07;67.72
39177;BME280;24904;52.208;21.192;2023-03-13T13:22:50;99322.19;;;11.03;67.79
39177;BME280;24904;52.208;21.192;2023-03-13T13:27:55;99322.92;;;10.99;67.96
39177;BME280;24904;52.208;21.192;2023-03-13T13:38:36;99319.44;;;10.81;69.57
39177;BME280;24904;52.208;21.192;2023-03-13T13:43:43;99312.45;;;10.71;70.59
39177;BME280;24904;52.208;21.192;2023-03-13T13:49:07;99299.71;;;10.62;71.11
39177;BME280;24904;52.208;21.192;2023-03-13T14:00:02;99288.98;;;10.49;72.47
39177;BME280;24904;52.208;21.192;2023-03-13T14:05:20;99282.27;;;10.43;73.04
39177;BME280;24904;52.208;21.192;2023-03-13T14:10:40;99291.16;;;10.36;73.72
39177;BME280;24904;52.208;21.192;2023-03-13T14:15:47;99286.52;;;10.27;74.43
39177;BME280;24904;52.208;21.192;2023-03-13T14:20:58;99259.11;;;10.18;75.12
39177;BME280;24904;52.208;21.192;2023-03-13T14:26:12;99256.06;;;10.12;75.78
39177;BME280;24904;52.208;21.192;2023-03-13T14:31:29;99247.48;;;10.06;76.11
39177;BME280;24904;52.208;21.192;2023-03-13T14:36:48;99239.12;;;10.03;76.67
39177;BME280;24904;52.208;21.192;2023-03-13T14:41:53;99233.17;;;9.99;76.93
39177;BME280;24904;52.208;21.192;2023-03-13T14:47:00;99234.67;;;9.95;77.02
39177;BME280;24904;52.208;21.192;2023-03-13T14:52:17;99216.96;;;9.96;77.32
39177;BME280;24904;52.208;21.192;2023-03-13T14:57:25;99201.15;;;9.94;77.27
39177;BME280;24904;52.208;21.192;2023-03-13T15:02:31;99186.91;;;9.92;77.61
39177;BME280;24904;52.208;21.192;2023-03-13T15:07:39;99173.83;;;9.93;77.52
39177;BME280;24904;52.208;21.192;2023-03-13T15:12:45;99170.86;;;9.91;77.73
39177;BME280;24904;52.208;21.192;2023-03-13T15:17:51;99167.34;;;9.90;77.61
39177;BME280;24904;52.208;21.192;2023-03-13T15:22:56;99165.72;;;9.86;77.89
39177;BME280;24904;52.208;21.192;2023-03-13T15:28:01;99169.10;;;9.82;78.05
39177;BME280;24904;52.208;21.192;2023-03-13T15:33:07;99165.17;;;9.81;78.27
39177;BME280;24904;52.208;21.192;2023-03-13T15:38:15;99157.13;;;9.79;78.49
39177;BME280;24904;52.208;21.192;2023-03-13T15:43:21;99157.15;;;9.76;78.74
39177;BME280;24904;52.208;21.192;2023-03-13T15:48:27;99155.75;;;9.74;79.02
39177;BME280;24904;52.208;21.192;2023-03-13T15:53:34;99158.03;;;9.72;79.13
39177;BME280;24904;52.208;21.192;2023-03-13T15:58:39;99157.41;;;9.70;79.19
39177;BME280;24904;52.208;21.192;2023-03-13T16:03:45;99159.45;;;9.69;79.07
39177;BME280;24904;52.208;21.192;2023-03-13T16:08:50;99158.03;;;9.70;78.99
39177;BME280;24904;52.208;21.192;2023-03-13T16:13:55;99158.42;;;9.70;79.13
39177;BME280;24904;52.208;21.192;2023-03-13T16:19:00;99159.05;;;9.73;78.88
39177;BME280;24904;52.208;21.192;2023-03-13T16:24:07;99155.30;;;9.72;79.03
39177;BME280;24904;52.208;21.192;2023-03-13T16:29:13;99153.73;;;9.72;78.65
39177;BME280;24904;52.208;21.192;2023-03-13T16:34:18;99154.83;;;9.74;78.51
39177;BME280;24904;52.208;21.192;2023-03-13T16:45:26;99162.53;;;9.79;78.14
39177;BME280;24904;52.208;21.192;2023-03-13T16:50:33;99164.39;;;9.82;78.11
39177;BME280;24904;52.208;21.192;2023-03-13T16:55:39;99158.50;;;9.85;78.05
39177;BME280;24904;52.208;21.192;2023-03-13T17:00:44;99159.99;;;9.83;77.83
39177;BME280;24904;52.208;21.192;2023-03-13T17:05:49;99158.90;;;9.86;77.69
39177;BME280;24904;52.208;21.192;2023-03-13T17:10:54;99155.52;;;9.89;77.54
39177;BME280;24904;52.208;21.192;2023-03-13T17:15:59;99165.98;;;9.92;77.32
39177;BME280;24904;52.208;21.192;2023-03-13T17:21:05;99167.77;;;9.96;76.90
39177;BME280;24904;52.208;21.192;2023-03-13T17:26:19;99169.55;;;9.98;76.87
39177;BME280;24904;52.208;21.192;2023-03-13T17:31:26;99167.91;;;10.00;76.77
39177;BME280;24904;52.208;21.192;2023-03-13T17:36:31;99171.34;;;10.03;76.48
39177;BME280;24904;52.208;21.192;2023-03-13T17:41:37;99170.87;;;10.03;76.07
39177;BME280;24904;52.208;21.192;2023-03-13T17:46:43;99168.82;;;10.05;76.13
39177;BME280;24904;52.208;21.192;2023-03-13T17:58:24;99167.75;;;10.15;75.41
39177;BME280;24904;52.208;21.192;2023-03-13T18:03:29;99160.91;;;10.18;75.15
39177;BME280;24904;52.208;21.192;2023-03-13T18:08:34;99163.31;;;10.22;74.86
39177;BME280;24904;52.208;21.192;2023-03-13T18:22:12;99149.69;;;10.32;73.90
39177;BME280;24904;52.208;21.192;2023-03-13T18:27:16;99143.66;;;10.32;73.59
39177;BME280;24904;52.208;21.192;2023-03-13T18:32:22;99130.06;;;10.35;73.10
39177;BME280;24904;52.208;21.192;2023-03-13T18:37:28;99133.81;;;10.37;73.00
39177;BME280;24904;52.208;21.192;2023-03-13T18:42:31;99135.44;;;10.39;72.77
39177;BME280;24904;52.208;21.192;2023-03-13T18:47:34;99131.66;;;10.41;72.56
39177;BME280;24904;52.208;21.192;2023-03-13T18:52:37;99138.01;;;10.43;71.96
39177;BME280;24904;52.208;21.192;2023-03-13T18:57:41;99129.45;;;10.45;71.62
39177;BME280;24904;52.208;21.192;2023-03-13T19:02:44;99129.19;;;10.48;71.37
39177;BME280;24904;52.208;21.192;2023-03-13T19:07:48;99123.21;;;10.49;70.82
39177;BME280;24904;52.208;21.192;2023-03-13T19:12:51;99117.78;;;10.51;70.63
39177;BME280;24904;52.208;21.192;2023-03-13T19:17:56;99115.88;;;10.53;70.54
39177;BME280;24904;52.208;21.192;2023-03-13T19:23:00;99109.59;;;10.55;70.16
39177;BME280;24904;52.208;21.192;2023-03-13T19:28:07;99105.05;;;10.55;70.04
39177;BME280;24904;52.208;21.192;2023-03-13T19:33:10;99102.68;;;10.57;70.19
39177;BME280;24904;52.208;21.192;2023-03-13T19:38:14;99098.67;;;10.58;69.87
39177;BME280;24904;52.208;21.192;2023-03-13T19:43:17;99107.23;;;10.58;69.74
39177;BME280;24904;52.208;21.192;2023-03-13T19:48:20;99115.14;;;10.58;69.58
39177;BME280;24904;52.208;21.192;2023-03-13T19:53:25;99119.06;;;10.59;69.65
39177;BME280;24904;52.208;21.192;2023-03-13T19:58:28;99126.34;;;10.60;69.52
39177;BME280;24904;52.208;21.192;2023-03-13T20:03:32;99130.71;;;10.61;69.19
39177;BME280;24904;52.208;21.192;2023-03-13T20:08:35;99132.11;;;10.63;69.19
39177;BME280;24904;52.208;21.192;2023-03-13T20:13:38;99122.70;;;10.62;68.77
39177;BME280;24904;52.208;21.192;2023-03-13T20:18:42;99112.58;;;10.63;69.07
39177;BME280;24904;52.208;21.192;2023-03-13T20:23:48;99114.50;;;10.66;68.80
39177;BME280;24904;52.208;21.192;2023-03-13T20:28:52;99116.77;;;10.66;68.70
39177;BME280;24904;52.208;21.192;2023-03-13T20:33:56;99122.17;;;10.67;68.54
39177;BME280;24904;52.208;21.192;2023-03-13T20:39:00;99116.91;;;10.69;68.34
39177;BME280;24904;52.208;21.192;2023-03-13T20:44:03;99118.39;;;10.73;68.24
39177;BME280;24904;52.208;21.192;2023-03-13T20:49:06;99113.27;;;10.74;68.21
39177;BME280;24904;52.208;21.192;2023-03-13T20:54:09;99102.20;;;10.74;67.95
39177;BME280;24904;52.208;21.192;2023-03-13T20:59:12;99095.22;;;10.75;67.91
39177;BME280;24904;52.208;21.192;2023-03-13T21:04:15;99086.33;;;10.77;67.84
39177;BME280;24904;52.208;21.192;2023-03-13T21:09:18;99086.68;;;10.79;67.74
39177;BME280;24904;52.208;21.192;2023-03-13T21:14:21;99079.05;;;10.82;67.51
39177;BME280;24904;52.208;21.192;2023-03-13T21:19:24;99071.58;;;10.82;67.46
39177;BME280;24904;52.208;21.192;2023-03-13T21:24:27;99068.45;;;10.82;67.40
39177;BME280;24904;52.208;21.192;2023-03-13T21:29:30;99060.63;;;10.81;67.27
39177;BME280;24904;52.208;21.192;2023-03-13T21:34:33;99060.85;;;10.81;67.28
39177;BME280;24904;52.208;21.192;2023-03-13T21:39:36;99063.63;;;10.79;66.86
39177;BME280;24904;52.208;21.192;2023-03-13T21:44:42;99065.60;;;10.78;66.92
39177;BME280;24904;52.208;21.192;2023-03-13T21:49:45;99067.79;;;10.79;66.93
39177;BME280;24904;52.208;21.192;2023-03-13T21:54:49;99061.67;;;10.79;66.83
39177;BME280;24904;52.208;21.192;2023-03-13T21:59:52;99045.19;;;10.79;66.64
39177;BME280;24904;52.208;21.192;2023-03-13T22:04:55;99044.65;;;10.79;66.65
39177;BME280;24904;52.208;21.192;2023-03-13T22:09:58;99029.06;;;10.77;66.36
39177;BME280;24904;52.208;21.192;2023-03-13T22:15:01;99023.07;;;10.73;66.23
39177;BME280;24904;52.208;21.192;2023-03-13T22:20:06;99023.09;;;10.72;66.32
39177;BME280;24904;52.208;21.192;2023-03-13T22:25:11;99014.86;;;10.70;66.28
39177;BME280;24904;52.208;21.192;2023-03-13T22:30:14;99010.54;;;10.69;66.45
39177;BME280;24904;52.208;21.192;2023-03-13T22:35:18;99015.90;;;10.66;66.09
39177;BME280;24904;52.208;21.192;2023-03-13T22:40:21;99021.88;;;10.65;66.19
39177;BME280;24904;52.208;21.192;2023-03-13T22:45:24;99020.25;;;10.64;66.16
39177;BME280;24904;52.208;21.192;2023-03-13T22:58:54;98998.11;;;10.66;65.99
39177;BME280;24904;52.208;21.192;2023-03-13T23:03:57;98997.20;;;10.64;65.86
39177;BME280;24904;52.208;21.192;2023-03-13T23:09:00;98985.58;;;10.65;65.73
39177;BME280;24904;52.208;21.192;2023-03-13T23:14:03;98988.95;;;10.65;65.72
39177;BME280;24904;52.208;21.192;2023-03-13T23:19:06;98983.64;;;10.63;65.50
39177;BME280;24904;52.208;21.192;2023-03-13T23:24:09;98986.33;;;10.62;65.45
39177;BME280;24904;52.208;21.192;2023-03-13T23:29:12;98988.94;;;10.60;65.48
39177;BME280;24904;52.208;21.192;2023-03-13T23:34:15;98985.91;;;10.57;65.27
39177;BME280;24904;52.208;21.192;2023-03-13T23:39:23;98989.27;;;10.51;65.30
39177;BME280;24904;52.208;21.192;2023-03-13T23:44:28;98985.83;;;10.42;65.22
39177;BME280;24904;52.208;21.192;2023-03-13T23:49:31;98975.48;;;10.35;65.29
39177;BME280;24904;52.208;21.192;2023-03-13T23:54:34;98972.92;;;10.25;65.45
39177;BME280;24904;52.208;21.192;2023-03-13T23:59:37;98971.15;;;10.20;65.69
